»·PEaware :: WAT169 KLAS-KSAN

WAT169 :: KLAS-KSAN

FLIGHT INFORMATION

Flight Status: Arrived
Operator:
Walker Air Transport
More flights by this operator :: More flights under this callsign
Pilot: Marty P. (27464)
Aircraft: BOEING 737-800
(B738)
More flights by this aircraft type
Origin: KLAS McCarran Intl
United States
Destination: KSAN San Diego Intl-Lindbergh
United States
More flights between these airports :: More routes between these airports
Route: BOACH8 LVELL LUCKI1
File this flight plan on PilotEdge
Remarks:
Altitude:
(Current/Filed)
26,000ft
Speed:
(Current/Filed)
470kts
Departed: 11-May-20 06:57 PM
Arrived: 11-May-20 07:41 PM
Distance/Time
Traveled:
225nm/0:43
Distance/Time
To Go:
Arrived

Flight Plot

Page will automatically refresh every two minutes.

Flight plan parsing failed; only flown route is shown


Map Options




Map Legend


Flown Route
Filed Route
Departure Airport
Arrival Airport
Navaid (VOR, NDB)
Fix

Horizontal Profiles

Position Reports

Time Latitude Longitude Heading Altitude Ground
Speed
11-May-20 18:29 36.081009 -115.147654 61 2191ft 0kts
11-May-20 18:30 36.081009 -115.147654 61 2191ft 0kts
11-May-20 18:31 36.081009 -115.147654 61 2191ft 0kts
11-May-20 18:32 36.081009 -115.147654 61 2191ft 0kts
11-May-20 18:33 36.081009 -115.147654 61 2191ft 0kts
11-May-20 18:34 36.081009 -115.147654 61 2191ft 0kts
11-May-20 18:35 36.081009 -115.147654 61 2191ft 0kts
11-May-20 18:36 36.081009 -115.147654 61 2191ft 0kts
11-May-20 18:37 36.081009 -115.147654 61 2191ft 0kts
11-May-20 18:38 36.081009 -115.147654 61 2191ft 0kts
11-May-20 18:39 36.081009 -115.147654 61 2191ft 0kts
11-May-20 18:40 36.081009 -115.147654 61 2191ft 0kts
11-May-20 18:41 36.081009 -115.147654 61 2191ft 0kts
11-May-20 18:42 36.080936 -115.147817 62 2191ft 2kts
11-May-20 18:43 36.081057 -115.148491 140 2191ft 2kts
11-May-20 18:44 36.081149 -115.148569 154 2191ft 0kts
11-May-20 18:45 36.080810 -115.148369 155 2191ft 6kts
11-May-20 18:46 36.078531 -115.146774 106 2191ft 10kts
11-May-20 18:47 36.078269 -115.142549 89 2191ft 15kts
11-May-20 18:48 36.078268 -115.137541 89 2191ft 12kts
11-May-20 18:49 36.078268 -115.133352 87 2191ft 11kts
11-May-20 18:50 36.078276 -115.129858 89 2191ft 10kts
11-May-20 18:51 36.078276 -115.124845 90 2191ft 15kts
11-May-20 18:52 36.077949 -115.122251 125 2191ft 2kts
11-May-20 18:53 36.077727 -115.121886 127 2191ft 0kts
11-May-20 18:54 36.077472 -115.121507 139 2191ft 0kts
11-May-20 18:55 36.076665 -115.121308 189 2191ft 10kts
11-May-20 18:56 36.076443 -115.143087 267 2214ft 177kts
11-May-20 18:57 36.076342 -115.205479 262 4651ft 210kts
11-May-20 18:58 36.041018 -115.270803 204 7072ft 256kts
11-May-20 18:59 35.976591 -115.298550 199 7032ft 252kts
11-May-20 19:00 35.905286 -115.309479 189 10452ft 259kts
11-May-20 19:01 35.832899 -115.312569 179 13308ft 281kts
11-May-20 19:02 35.743313 -115.302246 178 14094ft 366kts
11-May-20 19:03 35.638791 -115.295773 185 16388ft 382kts
11-May-20 19:04 35.530369 -115.300515 185 18696ft 397kts
11-May-20 19:05 35.418818 -115.304969 185 20855ft 409kts
11-May-20 19:06 35.303564 -115.309534 185 22717ft 423kts
11-May-20 19:07 35.184391 -115.314235 185 24351ft 436kts
11-May-20 19:08 35.061814 -115.319055 185 25734ft 447kts
11-May-20 19:09 34.936354 -115.323966 185 25803ft 457kts
11-May-20 19:10 34.814575 -115.335632 193 25799ft 460kts
11-May-20 19:11 34.690675 -115.375385 201 25807ft 461kts
11-May-20 19:12 34.569759 -115.424811 202 25920ft 460kts
11-May-20 19:13 34.449120 -115.476517 203 25963ft 460kts
11-May-20 19:14 34.331183 -115.534003 210 25963ft 455kts
11-May-20 19:15 34.219420 -115.604995 206 25964ft 457kts
11-May-20 19:16 34.104298 -115.663351 205 25964ft 457kts
11-May-20 19:18 33.986183 -115.720244 204 25890ft 458kts
11-May-20 19:19 33.874785 -115.773594 205 25808ft 416kts
11-May-20 19:20 33.766118 -115.827150 205 25807ft 423kts
11-May-20 19:21 33.656447 -115.878592 204 25807ft 424kts
11-May-20 19:22 33.548350 -115.933550 216 25807ft 419kts
11-May-20 19:23 33.471701 -116.026648 233 25100ft 389kts
11-May-20 19:24 33.405639 -116.134710 235 22737ft 397kts
11-May-20 19:25 33.340595 -116.236752 224 20143ft 381kts
11-May-20 19:26 33.251956 -116.300392 208 18027ft 360kts
11-May-20 19:27 33.160109 -116.354060 208 16351ft 376kts
11-May-20 19:28 33.069284 -116.407096 208 14105ft 352kts
11-May-20 19:29 32.990263 -116.459492 220 13118ft 307kts
11-May-20 19:30 32.927338 -116.523131 222 12082ft 278kts
11-May-20 19:31 32.870224 -116.580787 222 10814ft 272kts
11-May-20 19:32 32.812894 -116.638465 222 9443ft 269kts
11-May-20 19:33 32.762023 -116.702210 240 8055ft 265kts
11-May-20 19:34 32.726348 -116.778328 241 6693ft 263kts
11-May-20 19:35 32.695341 -116.855884 251 5376ft 257kts
11-May-20 19:35 32.676231 -116.920643 255 4942ft 229kts
11-May-20 19:37 32.688335 -117.004034 286 3408ft 242kts
11-May-20 19:37 32.703230 -117.064732 285 2297ft 203kts
11-May-20 19:39 32.717228 -117.122374 286 1087ft 139kts
11-May-20 19:40 32.728087 -117.166731 287 463ft 144kts
11-May-20 19:40 32.734517 -117.193655 279 27ft 23kts
11-May-20 19:42 32.734087 -117.195440 254 27ft 0kts
11-May-20 19:42 32.734087 -117.195440 254 27ft 0kts
11-May-20 19:43 32.734086 -117.195443 254 27ft 0kts
11-May-20 19:44 32.733402 -117.196488 172 27ft 3kts
11-May-20 19:45 32.733332 -117.196477 172 27ft 0kts
11-May-20 19:46 32.733332 -117.196477 172 27ft 0kts
11-May-20 19:47 32.733332 -117.196477 172 27ft 0kts
11-May-20 19:48 32.733332 -117.196477 172 27ft 0kts
11-May-20 19:49 32.733332 -117.196477 172 27ft 0kts

Navigation Log

Ident Type
Flight plan parsing failed, navigation log unavailable